Time;durP1;ratioP1;P1;durP2;ratioP2;P2;SDS_P1;SDS_P2;PMS_P1;PMS_P2;Temp;Humidity;BMP_temperature;BMP_pressure;BME280_temperature;BME280_humidity;BME280_pressure;Samples;Min_cycle;Max_cycle;Signal;HPM_P1;HPM_P2
2021/07/22 00:01:54;0.00;0.00;0.62;0.00;0.00;0.62;8.70;7.80;;;27.70;34.10;;;;;;2261488;61;20420;-59
2021/07/22 00:04:38;0.00;0.00;0.62;0.00;0.00;0.62;8.60;7.37;;;27.70;34.10;;;;;;2262144;61;20397;-60
2021/07/22 00:07:24;0.00;0.00;0.62;0.00;0.00;0.62;7.73;7.03;;;27.70;34.10;;;;;;2261147;61;20402;-61
2021/07/22 00:10:10;0.00;0.00;0.62;0.00;0.00;0.62;9.27;8.33;;;27.80;34.20;;;;;;2261874;61;20520;-60
2021/07/22 00:12:55;0.00;0.00;0.62;0.00;0.00;0.62;8.47;7.67;;;27.80;34.20;;;;;;2261963;61;20429;-59
2021/07/22 00:15:39;0.00;0.00;0.62;0.00;0.00;0.62;7.93;7.13;;;27.80;34.20;;;;;;2261227;61;20714;-60
2021/07/22 00:18:24;0.00;0.00;0.62;0.00;0.00;0.62;7.30;6.60;;;27.80;34.20;;;;;;2262099;61;20397;-60
2021/07/22 00:21:08;0.00;0.00;0.62;0.00;0.00;0.62;8.63;7.40;;;27.80;34.10;;;;;;2261851;61;20385;-61
2021/07/22 00:23:54;0.00;0.00;0.62;0.00;0.00;0.62;8.40;7.30;;;27.80;34.20;;;;;;2261555;61;20623;-61
2021/07/22 00:26:39;0.00;0.00;0.62;0.00;0.00;0.62;8.07;7.27;;;27.90;34.20;;;;;;2261972;61;20765;-60
2021/07/22 00:29:27;0.00;0.00;0.62;0.00;0.00;0.62;8.80;7.90;;;27.90;34.20;;;;;;2261603;61;20493;-60
2021/07/22 00:32:13;0.00;0.00;0.62;0.00;0.00;0.62;9.40;8.40;;;27.90;34.20;;;;;;2261345;61;20421;-60
2021/07/22 00:34:58;0.00;0.00;0.62;0.00;0.00;0.62;8.53;7.73;;;27.90;34.20;;;;;;2262078;61;20438;-60
2021/07/22 00:37:42;0.00;0.00;0.62;0.00;0.00;0.62;8.40;7.10;;;27.90;34.20;;;;;;2260758;61;20445;-60
2021/07/22 00:40:28;0.00;0.00;0.62;0.00;0.00;0.62;8.60;7.80;;;27.90;34.20;;;;;;2261544;61;20497;-59
2021/07/22 00:43:13;0.00;0.00;0.62;0.00;0.00;0.62;7.37;6.60;;;27.90;34.20;;;;;;2262001;61;20714;-59
2021/07/22 00:45:58;0.00;0.00;0.62;0.00;0.00;0.62;8.10;7.30;;;27.90;34.20;;;;;;2261407;61;20424;-60
2021/07/22 00:48:43;0.00;0.00;0.62;0.00;0.00;0.62;8.67;7.77;;;27.90;34.20;;;;;;2262148;61;20612;-60
2021/07/22 00:51:29;0.00;0.00;0.62;0.00;0.00;0.62;9.93;8.90;;;27.90;34.10;;;;;;2260951;61;20657;-60
2021/07/22 00:54:14;0.00;0.00;0.62;0.00;0.00;0.62;8.80;7.57;;;27.90;34.20;;;;;;2261934;61;20679;-60
2021/07/22 00:57:01;0.00;0.00;0.62;0.00;0.00;0.62;8.50;7.70;;;27.90;34.10;;;;;;2262109;61;20412;-60
2021/07/22 00:59:45;0.00;0.00;0.62;0.00;0.00;0.62;9.50;8.53;;;28.00;34.30;;;;;;2260933;61;20374;-60
2021/07/22 01:02:30;0.00;0.00;0.62;0.00;0.00;0.62;8.50;7.53;;;28.00;34.20;;;;;;2261521;61;20401;-61
2021/07/22 01:05:15;0.00;0.00;0.62;0.00;0.00;0.62;8.40;7.47;;;27.90;34.10;;;;;;2261897;61;20445;-61
2021/07/22 01:08:01;0.00;0.00;0.62;0.00;0.00;0.62;8.80;7.73;;;27.90;34.10;;;;;;2261394;61;20393;-60
2021/07/22 01:10:46;0.00;0.00;0.62;0.00;0.00;0.62;8.20;7.10;;;27.90;34.10;;;;;;2261878;61;20366;-60
2021/07/22 01:13:33;0.00;0.00;0.62;0.00;0.00;0.62;9.13;8.23;;;27.90;34.10;;;;;;2261403;61;20615;-61
2021/07/22 01:16:18;0.00;0.00;0.62;0.00;0.00;0.62;8.83;7.97;;;27.90;34.20;;;;;;2261620;61;20685;-60
2021/07/22 01:19:05;0.00;0.00;0.62;0.00;0.00;0.62;7.43;6.73;;;27.90;34.10;;;;;;2261582;61;20362;-60
2021/07/22 01:21:51;0.00;0.00;0.62;0.00;0.00;0.62;8.60;7.70;;;27.90;34.20;;;;;;2260883;61;20610;-59
2021/07/22 01:24:36;0.00;0.00;0.62;0.00;0.00;0.62;8.33;7.50;;;27.90;34.20;;;;;;2262150;61;20710;-60
2021/07/22 01:27:23;0.00;0.00;0.62;0.00;0.00;0.62;8.70;7.67;;;27.90;34.20;;;;;;2261531;61;20469;-61
2021/07/22 01:30:12;0.00;0.00;0.62;0.00;0.00;0.62;8.37;6.30;;;27.90;34.20;;;;;;2260597;61;20362;-61
2021/07/22 01:32:57;0.00;0.00;0.62;0.00;0.00;0.62;8.53;7.63;;;27.90;34.90;;;;;;2261571;61;20397;-60
2021/07/22 01:35:42;0.00;0.00;0.62;0.00;0.00;0.62;7.83;6.73;;;27.90;34.30;;;;;;2261287;61;20362;-59
2021/07/22 01:38:28;0.00;0.00;0.62;0.00;0.00;0.62;8.17;7.33;;;27.90;34.20;;;;;;2261501;61;20396;-60
2021/07/22 01:41:13;0.00;0.00;0.62;0.00;0.00;0.62;7.33;6.63;;;27.90;34.20;;;;;;2261438;61;20478;-59
2021/07/22 01:43:58;0.00;0.00;0.62;0.00;0.00;0.62;8.50;7.60;;;27.90;34.20;;;;;;2260866;61;20365;-59
2021/07/22 01:46:43;0.00;0.00;0.62;0.00;0.00;0.62;7.73;7.00;;;27.90;34.20;;;;;;2261911;61;20618;-61
2021/07/22 01:49:27;0.00;0.00;0.62;0.00;0.00;0.62;7.97;7.13;;;27.90;34.20;;;;;;2261652;61;20361;-60
2021/07/22 01:52:15;0.00;0.00;0.62;0.00;0.00;0.62;7.53;6.73;;;27.90;34.20;;;;;;2260551;61;20605;-59
2021/07/22 01:55:06;0.00;0.00;0.62;0.00;0.00;0.62;8.07;7.27;;;27.90;34.20;;;;;;2261328;61;20390;-60
2021/07/22 01:57:59;0.00;0.00;0.62;0.00;0.00;0.62;8.60;7.67;;;27.90;34.30;;;;;;2261074;61;20362;-60
2021/07/22 02:00:45;0.00;0.00;0.62;0.00;0.00;0.62;7.77;6.97;;;27.90;34.30;;;;;;2260929;61;20389;-60
2021/07/22 02:03:30;0.00;0.00;0.62;0.00;0.00;0.62;8.47;7.57;;;27.90;34.30;;;;;;2261972;61;20366;-61
2021/07/22 02:06:18;0.00;0.00;0.62;0.00;0.00;0.62;8.70;7.87;;;27.90;34.40;;;;;;2261001;61;20441;-59
2021/07/22 02:09:08;0.00;0.00;0.62;0.00;0.00;0.62;8.13;7.20;;;27.90;34.50;;;;;;2261921;61;20374;-60
2021/07/22 02:11:57;0.00;0.00;0.62;0.00;0.00;0.62;7.33;6.63;;;27.90;34.50;;;;;;2261466;61;20405;-60
2021/07/22 02:14:43;0.00;0.00;0.62;0.00;0.00;0.62;8.57;7.50;;;27.90;34.50;;;;;;2261149;61;20370;-60
2021/07/22 02:17:33;0.00;0.00;0.62;0.00;0.00;0.62;8.87;6.93;;;27.90;34.50;;;;;;2261425;61;20350;-59
2021/07/22 02:20:18;0.00;0.00;0.62;0.00;0.00;0.62;8.17;7.30;;;27.90;34.50;;;;;;2260912;61;20756;-60
2021/07/22 02:23:05;0.00;0.00;0.62;0.00;0.00;0.62;8.33;7.53;;;27.90;34.50;;;;;;2261243;61;20354;-59
2021/07/22 02:26:10;0.00;0.00;0.62;0.00;0.00;0.62;8.20;7.10;;;27.90;34.50;;;;;;2261744;61;20389;-59
2021/07/22 02:28:56;0.00;0.00;0.62;0.00;0.00;0.62;7.40;6.67;;;27.90;34.50;;;;;;2260451;61;20362;-60
2021/07/22 02:31:40;0.00;0.00;0.62;0.00;0.00;0.62;7.77;7.00;;;27.90;34.60;;;;;;2261689;61;20392;-60
2021/07/22 02:34:29;0.00;0.00;0.62;0.00;0.00;0.62;9.13;7.40;;;27.90;34.60;;;;;;2261086;61;20378;-61
2021/07/22 02:37:19;0.00;0.00;0.62;0.00;0.00;0.62;9.03;7.97;;;27.90;34.70;;;;;;2260771;61;20354;-60
2021/07/22 02:40:23;0.00;0.00;0.62;0.00;0.00;0.62;8.57;7.17;;;27.90;35.40;;;;;;2261100;61;20404;-59
2021/07/22 02:43:07;0.00;0.00;0.62;0.00;0.00;0.62;8.00;7.20;;;27.90;34.70;;;;;;2261102;61;20397;-60
2021/07/22 02:45:53;0.00;0.00;0.62;0.00;0.00;0.62;8.10;7.27;;;27.90;34.80;;;;;;2261688;61;20408;-60
2021/07/22 02:48:39;0.00;0.00;0.62;0.00;0.00;0.62;7.93;7.10;;;27.90;34.80;;;;;;2261575;61;20396;-59
2021/07/22 02:51:27;0.00;0.00;0.62;0.00;0.00;0.62;8.80;7.90;;;27.90;34.80;;;;;;2260428;61;20471;-60
2021/07/22 02:54:12;0.00;0.00;0.62;0.00;0.00;0.62;9.73;7.97;;;27.90;34.80;;;;;;2261296;61;20354;-61
2021/07/22 02:56:57;0.00;0.00;0.62;0.00;0.00;0.62;8.70;7.80;;;27.90;34.80;;;;;;2260958;61;20377;-60
2021/07/22 02:59:45;0.00;0.00;0.62;0.00;0.00;0.62;9.80;7.80;;;27.90;34.80;;;;;;2260971;61;20393;-60
2021/07/22 03:02:31;0.00;0.00;0.62;0.00;0.00;0.62;9.00;8.10;;;27.90;34.70;;;;;;2261541;61;20386;-60
2021/07/22 03:05:16;0.00;0.00;0.62;0.00;0.00;0.62;10.33;9.07;;;27.90;35.40;;;;;;2260743;61;20366;-60
2021/07/22 03:08:05;0.00;0.00;0.62;0.00;0.00;0.62;8.83;8.03;;;27.90;34.80;;;;;;2262100;61;20671;-60
2021/07/22 03:10:50;0.00;0.00;0.62;0.00;0.00;0.62;9.90;7.93;;;27.90;34.80;;;;;;2261779;61;20404;-60
2021/07/22 03:13:35;0.00;0.00;0.62;0.00;0.00;0.62;10.17;8.53;;;27.90;34.80;;;;;;2261888;61;20366;-60
2021/07/22 03:16:22;0.00;0.00;0.62;0.00;0.00;0.62;10.63;9.63;;;27.90;34.90;;;;;;2261825;61;20378;-60
2021/07/22 03:19:27;0.00;0.00;0.62;0.00;0.00;0.62;10.60;9.50;;;27.90;34.90;;;;;;2261777;61;20392;-60
2021/07/22 03:22:20;0.00;0.00;0.62;0.00;0.00;0.62;10.37;9.37;;;27.90;34.90;;;;;;2261552;61;20443;-61
2021/07/22 03:25:27;0.00;0.00;0.62;0.00;0.00;0.62;9.63;8.63;;;27.90;34.90;;;;;;2262324;61;20412;-61
2021/07/22 03:28:20;0.00;0.00;0.62;0.00;0.00;0.62;10.10;9.20;;;27.90;35.00;;;;;;2261173;61;20353;-61
2021/07/22 03:31:23;0.00;0.00;0.62;0.00;0.00;0.62;11.27;10.17;;;27.90;35.00;;;;;;2262058;61;20378;-60
2021/07/22 03:34:27;0.00;0.00;0.62;0.00;0.00;0.62;12.50;11.20;;;27.80;34.90;;;;;;2261778;61;20385;-60
2021/07/22 03:37:22;0.00;0.00;0.62;0.00;0.00;0.62;11.03;9.87;;;27.80;34.90;;;;;;2258720;61;20354;-61
2021/07/22 03:40:08;0.00;0.00;0.62;0.00;0.00;0.62;9.97;8.97;;;27.80;34.90;;;;;;2261839;61;20824;-59
2021/07/22 03:42:54;0.00;0.00;0.62;0.00;0.00;0.62;11.40;10.00;;;27.80;34.90;;;;;;2261280;61;20449;-60
2021/07/22 03:45:46;0.00;0.00;0.62;0.00;0.00;0.62;12.20;10.00;;;27.80;35.00;;;;;;2261808;61;20408;-60
2021/07/22 03:48:31;0.00;0.00;0.62;0.00;0.00;0.62;10.60;9.50;;;27.80;34.90;;;;;;2261751;61;20366;-60
2021/07/22 03:51:18;0.00;0.00;0.62;0.00;0.00;0.62;9.80;8.80;;;27.80;34.90;;;;;;2261183;61;20382;-61
2021/07/22 03:54:04;0.00;0.00;0.62;0.00;0.00;0.62;12.13;10.93;;;27.70;34.90;;;;;;2262327;61;20362;-61
2021/07/22 03:56:49;0.00;0.00;0.62;0.00;0.00;0.62;11.00;9.90;;;27.70;35.60;;;;;;2258378;61;20721;-59
2021/07/22 03:59:37;0.00;0.00;0.62;0.00;0.00;0.62;10.53;9.57;;;27.70;34.90;;;;;;2261472;61;20405;-60
2021/07/22 04:02:22;0.00;0.00;0.62;0.00;0.00;0.62;11.33;10.23;;;27.70;34.90;;;;;;2261860;61;20823;-60
2021/07/22 04:05:08;0.00;0.00;0.62;0.00;0.00;0.62;10.20;9.13;;;27.70;34.90;;;;;;2260622;61;20786;-59
2021/07/22 04:07:57;0.00;0.00;0.62;0.00;0.00;0.62;11.73;9.60;;;27.70;34.90;;;;;;2261712;61;20385;-60
2021/07/22 04:11:01;0.00;0.00;0.62;0.00;0.00;0.62;9.90;9.00;;;27.60;34.80;;;;;;2261684;61;20485;-60
2021/07/22 04:14:21;0.00;0.00;0.62;0.00;0.00;0.62;10.63;8.60;;;27.60;34.70;;;;;;2260906;61;20801;-60
2021/07/22 04:17:26;0.00;0.00;0.62;0.00;0.00;0.62;9.33;8.43;;;27.60;34.70;;;;;;2262058;61;20350;-60
2021/07/22 04:20:33;0.00;0.00;0.62;0.00;0.00;0.62;9.50;8.60;;;27.50;34.50;;;;;;2260844;61;20640;-59
2021/07/22 04:23:48;0.00;0.00;0.62;0.00;0.00;0.62;8.53;7.73;;;27.50;34.60;;;;;;2261856;61;20405;-60
2021/07/22 04:26:52;0.00;0.00;0.62;0.00;0.00;0.62;9.43;8.60;;;27.50;34.60;;;;;;2261131;61;20450;-60
2021/07/22 04:29:40;0.00;0.00;0.62;0.00;0.00;0.62;9.53;8.63;;;27.50;34.60;;;;;;2261835;61;20439;-59
2021/07/22 04:32:25;0.00;0.00;0.62;0.00;0.00;0.62;9.17;8.37;;;27.40;34.50;;;;;;2261965;61;20381;-63
2021/07/22 04:35:27;0.00;0.00;0.62;0.00;0.00;0.62;11.30;9.43;;;27.40;34.60;;;;;;2260917;61;20366;-60
2021/07/22 04:38:34;0.00;0.00;0.62;0.00;0.00;0.62;9.57;8.63;;;27.40;34.50;;;;;;2261775;61;20357;-60
2021/07/22 04:41:39;0.00;0.00;0.62;0.00;0.00;0.62;9.93;8.93;;;27.40;34.50;;;;;;2261242;61;20385;-59
2021/07/22 04:44:38;0.00;0.00;0.62;0.00;0.00;0.62;8.70;7.50;;;27.40;34.50;;;;;;2261792;61;20436;-59
2021/07/22 04:47:33;0.00;0.00;0.62;0.00;0.00;0.62;9.27;8.27;;;27.40;34.50;;;;;;2261953;61;20378;-60
2021/07/22 04:50:45;0.00;0.00;0.62;0.00;0.00;0.62;8.53;7.73;;;27.30;34.50;;;;;;2261220;61;20401;-61
2021/07/22 04:53:45;0.00;0.00;0.62;0.00;0.00;0.62;8.63;7.83;;;27.30;34.50;;;;;;2261527;61;20711;-60
2021/07/22 04:56:30;0.00;0.00;0.62;0.00;0.00;0.62;9.23;8.33;;;27.30;34.50;;;;;;2260820;61;20584;-56
2021/07/22 04:59:17;0.00;0.00;0.62;0.00;0.00;0.62;9.50;8.60;;;27.30;34.50;;;;;;2261622;61;20354;-61
2021/07/22 05:02:03;0.00;0.00;0.62;0.00;0.00;0.62;8.80;8.00;;;27.30;34.50;;;;;;2261196;61;20390;-61
2021/07/22 05:04:47;0.00;0.00;0.62;0.00;0.00;0.62;8.67;7.43;;;27.20;34.50;;;;;;2260848;61;20401;-61
2021/07/22 05:07:32;0.00;0.00;0.62;0.00;0.00;0.62;8.63;7.83;;;27.20;34.60;;;;;;2261649;61;20428;-61
2021/07/22 05:10:46;0.00;0.00;0.62;0.00;0.00;0.62;8.50;7.60;;;27.20;34.70;;;;;;2260709;61;20354;-60
2021/07/22 05:13:39;0.00;0.00;0.62;0.00;0.00;0.62;8.57;7.73;;;27.20;34.70;;;;;;2261375;61;20362;-60
2021/07/22 05:16:52;0.00;0.00;0.62;0.00;0.00;0.62;8.10;7.40;;;27.30;34.80;;;;;;2261605;61;20378;-60
2021/07/22 05:20:06;0.00;0.00;0.62;0.00;0.00;0.62;8.10;7.30;;;27.30;34.80;;;;;;2260889;61;20588;-61
2021/07/22 05:23:11;0.00;0.00;0.62;0.00;0.00;0.62;7.67;6.93;;;27.30;34.80;;;;;;2261906;61;20362;-61
2021/07/22 05:26:03;0.00;0.00;0.62;0.00;0.00;0.62;9.10;8.30;;;27.30;35.00;;;;;;2261263;61;20365;-59
2021/07/22 05:28:56;0.00;0.00;0.62;0.00;0.00;0.62;8.43;7.40;;;27.30;35.00;;;;;;2261316;61;20458;-59
2021/07/22 05:32:06;0.00;0.00;0.62;0.00;0.00;0.62;8.63;7.83;;;27.30;35.00;;;;;;2261529;61;20405;-58
2021/07/22 05:35:08;0.00;0.00;0.62;0.00;0.00;0.62;8.77;7.90;;;27.30;35.00;;;;;;2261203;61;20492;-59
2021/07/22 05:38:08;0.00;0.00;0.62;0.00;0.00;0.62;8.87;7.97;;;27.30;34.90;;;;;;2261845;61;20365;-61
2021/07/22 05:40:53;0.00;0.00;0.62;0.00;0.00;0.62;9.10;8.17;;;27.30;35.00;;;;;;2261033;61;20382;-60
2021/07/22 05:43:38;0.00;0.00;0.62;0.00;0.00;0.62;9.20;7.10;;;27.30;35.00;;;;;;2261819;61;20358;-60
2021/07/22 05:46:22;0.00;0.00;0.62;0.00;0.00;0.62;8.97;8.07;;;27.30;35.00;;;;;;2261757;61;20401;-60
2021/07/22 05:49:10;0.00;0.00;0.62;0.00;0.00;0.62;8.33;7.53;;;27.30;35.00;;;;;;2261417;61;20401;-59
2021/07/22 05:51:54;0.00;0.00;0.62;0.00;0.00;0.62;7.87;7.07;;;27.30;35.00;;;;;;2261606;61;20413;-60
2021/07/22 05:54:39;0.00;0.00;0.62;0.00;0.00;0.62;8.50;7.70;;;27.40;35.00;;;;;;2261649;61;20392;-60
2021/07/22 05:57:23;0.00;0.00;0.62;0.00;0.00;0.62;7.30;6.70;;;27.30;35.00;;;;;;2260937;61;20377;-60
2021/07/22 06:00:10;0.00;0.00;0.62;0.00;0.00;0.62;7.93;6.90;;;27.30;35.00;;;;;;2261759;61;20362;-59
2021/07/22 06:02:59;0.00;0.00;0.62;0.00;0.00;0.62;7.47;6.80;;;27.40;35.10;;;;;;2261100;61;20385;-60
2021/07/22 06:05:45;0.00;0.00;0.62;0.00;0.00;0.62;7.00;6.30;;;27.30;35.00;;;;;;2261882;61;20619;-59
2021/07/22 06:08:29;0.00;0.00;0.62;0.00;0.00;0.62;7.57;6.77;;;27.40;35.00;;;;;;2261859;61;20382;-60
2021/07/22 06:11:14;0.00;0.00;0.62;0.00;0.00;0.62;7.80;7.00;;;27.40;35.00;;;;;;2260897;61;20454;-59
2021/07/22 06:13:58;0.00;0.00;0.62;0.00;0.00;0.62;7.27;6.57;;;27.40;35.00;;;;;;2261923;61;20401;-59
2021/07/22 06:16:43;0.00;0.00;0.62;0.00;0.00;0.62;7.27;6.57;;;27.40;35.00;;;;;;2261563;61;20374;-60
2021/07/22 06:19:30;0.00;0.00;0.62;0.00;0.00;0.62;7.73;6.90;;;27.40;35.00;;;;;;2260922;61;20353;-60
2021/07/22 06:22:16;0.00;0.00;0.62;0.00;0.00;0.62;6.97;6.27;;;27.40;35.00;;;;;;2261681;61;20421;-60
2021/07/22 06:25:00;0.00;0.00;0.62;0.00;0.00;0.62;6.57;5.93;;;27.40;35.00;;;;;;2261068;61;20717;-60
2021/07/22 06:27:45;0.00;0.00;0.62;0.00;0.00;0.62;8.57;6.53;;;27.50;35.00;;;;;;2261592;61;20386;-60
2021/07/22 06:30:31;0.00;0.00;0.62;0.00;0.00;0.62;7.30;6.60;;;27.40;35.00;;;;;;2261622;61;20397;-60
2021/07/22 06:33:15;0.00;0.00;0.62;0.00;0.00;0.62;6.83;6.13;;;27.40;35.00;;;;;;2260858;61;20412;-60
2021/07/22 06:36:00;0.00;0.00;0.62;0.00;0.00;0.62;6.43;5.83;;;27.50;35.00;;;;;;2261251;61;20571;-60
2021/07/22 06:38:45;0.00;0.00;0.62;0.00;0.00;0.62;7.40;6.70;;;27.50;35.00;;;;;;2261453;61;20386;-61
2021/07/22 06:41:30;0.00;0.00;0.62;0.00;0.00;0.62;7.00;6.20;;;27.50;35.00;;;;;;2260869;61;20385;-60
2021/07/22 06:44:15;0.00;0.00;0.62;0.00;0.00;0.62;7.93;7.13;;;27.50;35.00;;;;;;2261659;61;20437;-61
2021/07/22 06:47:00;0.00;0.00;0.62;0.00;0.00;0.62;7.70;6.27;;;27.50;35.00;;;;;;2260990;61;20423;-59
2021/07/22 06:49:45;0.00;0.00;0.62;0.00;0.00;0.62;7.17;6.30;;;27.60;35.00;;;;;;2261404;61;20738;-60
2021/07/22 06:52:29;0.00;0.00;0.62;0.00;0.00;0.62;6.90;6.27;;;27.60;35.00;;;;;;2261437;61;20656;-58
2021/07/22 06:55:15;0.00;0.00;0.62;0.00;0.00;0.62;7.50;6.50;;;27.60;35.00;;;;;;2260755;61;20357;-60
2021/07/22 06:58:07;0.00;0.00;0.62;0.00;0.00;0.62;6.40;5.80;;;27.60;35.00;;;;;;2261605;61;20362;-60
2021/07/22 07:00:51;0.00;0.00;0.62;0.00;0.00;0.62;7.10;6.37;;;27.60;34.90;;;;;;2261233;61;20430;-59
2021/07/22 07:03:36;0.00;0.00;0.62;0.00;0.00;0.62;6.97;6.37;;;27.70;35.00;;;;;;2260961;61;20446;-60
2021/07/22 07:06:20;0.00;0.00;0.62;0.00;0.00;0.62;7.37;6.60;;;27.60;34.90;;;;;;2261534;61;20636;-60
2021/07/22 07:09:06;0.00;0.00;0.62;0.00;0.00;0.62;7.90;6.47;;;27.60;34.90;;;;;;2261026;61;20801;-60
2021/07/22 07:11:51;0.00;0.00;0.62;0.00;0.00;0.62;7.20;6.50;;;27.70;35.00;;;;;;2261073;61;20719;-57
2021/07/22 07:14:36;0.00;0.00;0.62;0.00;0.00;0.62;7.40;6.70;;;27.70;35.00;;;;;;2261278;61;20734;-58
2021/07/22 07:17:21;0.00;0.00;0.62;0.00;0.00;0.62;6.50;5.80;;;27.70;34.90;;;;;;2260679;61;20502;-62
2021/07/22 07:20:07;0.00;0.00;0.62;0.00;0.00;0.62;7.00;6.40;;;27.70;34.90;;;;;;2261474;61;20605;-58
2021/07/22 07:22:54;0.00;0.00;0.62;0.00;0.00;0.62;7.33;6.63;;;27.70;34.90;;;;;;2261397;61;20643;-60
2021/07/22 07:25:39;0.00;0.00;0.62;0.00;0.00;0.62;6.50;5.90;;;27.70;34.90;;;;;;2261037;61;20636;-57
2021/07/22 07:28:26;0.00;0.00;0.62;0.00;0.00;0.62;7.20;6.50;;;27.70;34.90;;;;;;2261671;61;20393;-59
2021/07/22 07:31:10;0.00;0.00;0.62;0.00;0.00;0.62;6.73;6.03;;;27.70;34.90;;;;;;2260861;61;20764;-59
2021/07/22 07:33:55;0.00;0.00;0.62;0.00;0.00;0.62;7.70;6.80;;;27.70;34.80;;;;;;2261227;61;20765;-59
2021/07/22 07:36:45;0.00;0.00;0.62;0.00;0.00;0.62;6.90;6.30;;;27.80;34.90;;;;;;2261577;61;20393;-59
2021/07/22 07:39:30;0.00;0.00;0.62;0.00;0.00;0.62;7.17;6.47;;;27.80;34.90;;;;;;2260588;61;20426;-61
2021/07/22 07:42:14;0.00;0.00;0.62;0.00;0.00;0.62;7.33;6.63;;;27.80;34.90;;;;;;2261653;61;20374;-59
2021/07/22 07:45:00;0.00;0.00;0.62;0.00;0.00;0.62;6.40;5.80;;;27.80;34.90;;;;;;2261386;61;20362;-60
2021/07/22 07:47:45;0.00;0.00;0.62;0.00;0.00;0.62;6.93;6.33;;;27.90;35.00;;;;;;2260823;61;20382;-58
2021/07/22 07:50:30;0.00;0.00;0.62;0.00;0.00;0.62;6.70;6.07;;;27.90;34.90;;;;;;2261581;61;20421;-60
2021/07/22 07:53:16;0.00;0.00;0.62;0.00;0.00;0.62;6.53;5.87;;;27.80;34.80;;;;;;2261393;61;20393;-59
2021/07/22 07:56:00;0.00;0.00;0.62;0.00;0.00;0.62;7.13;6.33;;;27.90;34.90;;;;;;2261769;61;20578;-59
2021/07/22 07:58:45;0.00;0.00;0.62;0.00;0.00;0.62;6.90;6.20;;;27.90;34.80;;;;;;2262271;61;20358;-59
2021/07/22 08:01:31;0.00;0.00;0.62;0.00;0.00;0.62;6.93;6.33;;;27.90;34.80;;;;;;2261336;61;20385;-60
2021/07/22 08:04:15;0.00;0.00;0.62;0.00;0.00;0.62;6.17;5.57;;;28.00;34.90;;;;;;2262277;61;20362;-59
2021/07/22 08:07:00;0.00;0.00;0.62;0.00;0.00;0.62;6.67;6.07;;;28.00;34.80;;;;;;2262055;61;20401;-60
2021/07/22 08:09:47;0.00;0.00;0.62;0.00;0.00;0.62;6.93;6.23;;;28.00;34.80;;;;;;2261358;61;20362;-60
2021/07/22 08:12:31;0.00;0.00;0.62;0.00;0.00;0.62;6.30;5.67;;;28.00;34.80;;;;;;2262183;61;20625;-59
2021/07/22 08:15:16;0.00;0.00;0.62;0.00;0.00;0.62;6.70;6.10;;;28.00;34.80;;;;;;2261862;61;20362;-60
2021/07/22 08:18:02;0.00;0.00;0.62;0.00;0.00;0.62;6.70;6.10;;;28.00;34.80;;;;;;2261800;61;20590;-60
2021/07/22 08:20:46;0.00;0.00;0.62;0.00;0.00;0.62;6.90;6.20;;;28.00;34.80;;;;;;2262116;61;20362;-60
2021/07/22 08:23:31;0.00;0.00;0.62;0.00;0.00;0.62;6.40;5.80;;;28.00;34.70;;;;;;2261504;61;20389;-60
2021/07/22 08:26:15;0.00;0.00;0.62;0.00;0.00;0.62;7.33;6.63;;;28.00;34.70;;;;;;2262066;61;20365;-60
2021/07/22 08:29:00;0.00;0.00;0.62;0.00;0.00;0.62;6.90;6.10;;;28.00;34.70;;;;;;2262079;61;20421;-59
2021/07/22 08:31:44;0.00;0.00;0.62;0.00;0.00;0.62;6.23;5.63;;;28.00;34.70;;;;;;2261305;61;20382;-60
2021/07/22 08:34:30;0.00;0.00;0.62;0.00;0.00;0.62;6.37;5.77;;;28.00;34.70;;;;;;2262131;61;20362;-60
2021/07/22 08:37:15;0.00;0.00;0.62;0.00;0.00;0.62;6.43;5.60;;;28.10;34.70;;;;;;2261750;61;20604;-59
2021/07/22 08:40:04;0.00;0.00;0.62;0.00;0.00;0.62;6.27;5.67;;;28.10;34.70;;;;;;2261504;61;20358;-60
2021/07/22 08:42:49;0.00;0.00;0.62;0.00;0.00;0.62;8.30;6.00;;;28.10;34.70;;;;;;2261998;61;20418;-60
2021/07/22 08:45:33;0.00;0.00;0.62;0.00;0.00;0.62;7.30;6.60;;;28.10;34.70;;;;;;2261431;61;20373;-60
2021/07/22 08:48:18;0.00;0.00;0.62;0.00;0.00;0.62;7.13;6.53;;;28.10;34.70;;;;;;2261872;61;20389;-60
2021/07/22 08:51:04;0.00;0.00;0.62;0.00;0.00;0.62;6.17;5.57;;;28.10;34.70;;;;;;2261798;61;20469;-59
2021/07/22 08:53:49;0.00;0.00;0.62;0.00;0.00;0.62;6.87;6.17;;;28.10;34.60;;;;;;2261189;61;20362;-59
2021/07/22 08:56:34;0.00;0.00;0.62;0.00;0.00;0.62;6.53;5.87;;;28.10;34.60;;;;;;2262039;61;20366;-58
2021/07/22 08:59:20;0.00;0.00;0.62;0.00;0.00;0.62;6.10;5.50;;;28.10;34.60;;;;;;2261796;61;20597;-59
2021/07/22 09:02:05;0.00;0.00;0.62;0.00;0.00;0.62;7.50;5.90;;;28.10;34.60;;;;;;2261261;61;20478;-60
2021/07/22 09:04:51;0.00;0.00;0.62;0.00;0.00;0.62;7.10;5.50;;;28.10;34.60;;;;;;2261837;61;20362;-59
2021/07/22 09:07:38;0.00;0.00;0.62;0.00;0.00;0.62;6.70;6.10;;;28.10;34.60;;;;;;2261613;61;21127;-60
2021/07/22 09:10:23;0.00;0.00;0.62;0.00;0.00;0.62;6.83;6.13;;;28.20;34.70;;;;;;2261634;61;20378;-59
2021/07/22 09:13:27;0.00;0.00;0.62;0.00;0.00;0.62;5.60;4.90;;;28.20;34.70;;;;;;2261977;61;20691;-60
2021/07/22 09:16:12;0.00;0.00;0.62;0.00;0.00;0.62;6.60;6.00;;;28.10;34.60;;;;;;2261239;61;20369;-59
2021/07/22 09:18:57;0.00;0.00;0.62;0.00;0.00;0.62;6.13;5.60;;;28.20;34.60;;;;;;2261819;61;20589;-60
2021/07/22 09:21:41;0.00;0.00;0.62;0.00;0.00;0.62;5.97;5.40;;;28.20;34.60;;;;;;2261821;61;20382;-60
2021/07/22 09:24:27;0.00;0.00;0.62;0.00;0.00;0.62;6.40;5.80;;;28.20;35.30;;;;;;2261519;61;20434;-59
2021/07/22 09:27:34;0.00;0.00;0.62;0.00;0.00;0.62;7.60;5.20;;;28.20;34.60;;;;;;2261774;61;20385;-60
2021/07/22 09:30:19;0.00;0.00;0.62;0.00;0.00;0.62;6.37;5.77;;;28.20;34.60;;;;;;2261209;61;20405;-60
2021/07/22 09:33:05;0.00;0.00;0.62;0.00;0.00;0.62;6.23;5.63;;;28.20;34.60;;;;;;2261971;61;20733;-60
2021/07/22 09:35:49;0.00;0.00;0.62;0.00;0.00;0.62;6.53;5.50;;;28.20;34.60;;;;;;2261406;61;20730;-60
2021/07/22 09:38:34;0.00;0.00;0.62;0.00;0.00;0.62;5.90;5.30;;;28.20;34.50;;;;;;2261143;61;20357;-60
2021/07/22 09:41:23;0.00;0.00;0.62;0.00;0.00;0.62;7.10;5.87;;;28.20;34.50;;;;;;2261257;61;20650;-60
2021/07/22 09:44:27;0.00;0.00;0.62;0.00;0.00;0.62;6.20;5.60;;;28.20;34.50;;;;;;2261789;61;20490;-60
2021/07/22 09:47:11;0.00;0.00;0.62;0.00;0.00;0.62;6.00;5.50;;;28.30;34.60;;;;;;2261720;61;20628;-60
2021/07/22 09:50:08;0.00;0.00;0.62;0.00;0.00;0.62;6.63;5.90;;;28.30;34.60;;;;;;2261896;61;20360;-60
2021/07/22 09:53:07;0.00;0.00;0.62;0.00;0.00;0.62;5.80;5.23;;;28.30;34.50;;;;;;2260881;61;20475;-58
2021/07/22 09:55:54;0.00;0.00;0.62;0.00;0.00;0.62;6.17;5.67;;;28.30;34.50;;;;;;2261677;61;20362;-59
2021/07/22 09:58:41;0.00;0.00;0.62;0.00;0.00;0.62;6.27;5.10;;;28.30;34.50;;;;;;2261582;61;20394;-60
2021/07/22 10:01:25;0.00;0.00;0.62;0.00;0.00;0.62;6.50;5.80;;;28.30;34.50;;;;;;2261160;61;20397;-61
2021/07/22 10:04:13;0.00;0.00;0.62;0.00;0.00;0.62;5.77;5.23;;;28.30;34.40;;;;;;2261794;61;20384;-61
2021/07/22 10:07:02;0.00;0.00;0.62;0.00;0.00;0.62;9.40;5.37;;;28.30;34.40;;;;;;2261046;61;20382;-60
2021/07/22 10:09:50;0.00;0.00;0.62;0.00;0.00;0.62;6.37;5.70;;;28.30;34.40;;;;;;2261715;61;20742;-60
2021/07/22 10:12:35;0.00;0.00;0.62;0.00;0.00;0.62;6.30;5.70;;;28.30;34.40;;;;;;2261773;61;20381;-60
2021/07/22 10:15:23;0.00;0.00;0.62;0.00;0.00;0.62;6.27;5.33;;;28.30;34.40;;;;;;2260936;61;20393;-60
2021/07/22 10:18:08;0.00;0.00;0.62;0.00;0.00;0.62;6.60;5.13;;;28.30;34.40;;;;;;2261964;61;20774;-60
2021/07/22 10:20:58;0.00;0.00;0.62;0.00;0.00;0.62;6.70;5.77;;;28.30;34.40;;;;;;2261356;61;20361;-60
2021/07/22 10:23:43;0.00;0.00;0.62;0.00;0.00;0.62;6.00;5.40;;;28.30;34.40;;;;;;2261446;61;20385;-60
2021/07/22 10:26:28;0.00;0.00;0.62;0.00;0.00;0.62;6.03;5.43;;;28.40;34.50;;;;;;2261835;61;20397;-59
2021/07/22 10:29:12;0.00;0.00;0.62;0.00;0.00;0.62;6.77;6.17;;;28.40;34.40;;;;;;2261000;61;20714;-60
2021/07/22 10:31:59;0.00;0.00;0.62;0.00;0.00;0.62;6.10;5.13;;;28.40;34.40;;;;;;2261497;61;20401;-60
2021/07/22 10:34:45;0.00;0.00;0.62;0.00;0.00;0.62;6.40;5.03;;;28.40;34.50;;;;;;2261796;61;20578;-60
2021/07/22 10:37:29;0.00;0.00;0.62;0.00;0.00;0.62;5.37;4.87;;;28.40;34.40;;;;;;2260876;61;20591;-59
2021/07/22 10:40:15;0.00;0.00;0.62;0.00;0.00;0.62;6.00;5.40;;;28.40;34.40;;;;;;2261695;61;20365;-60
2021/07/22 10:42:59;0.00;0.00;0.62;0.00;0.00;0.62;8.27;5.80;;;28.40;34.30;;;;;;2261361;61;20406;-59
2021/07/22 10:45:52;0.00;0.00;0.62;0.00;0.00;0.62;5.67;5.23;;;28.40;34.30;;;;;;2260969;61;20426;-59
2021/07/22 10:48:39;0.00;0.00;0.62;0.00;0.00;0.62;6.73;6.13;;;28.40;34.30;;;;;;2261722;61;20386;-60
2021/07/22 10:51:38;0.00;0.00;0.62;0.00;0.00;0.62;6.60;5.83;;;28.50;34.40;;;;;;2260929;61;20390;-60
2021/07/22 10:54:48;0.00;0.00;0.62;0.00;0.00;0.62;5.50;5.00;;;28.50;34.40;;;;;;2261726;61;20401;-60
2021/07/22 10:57:37;0.00;0.00;0.62;0.00;0.00;0.62;6.20;5.60;;;28.50;34.40;;;;;;2261005;61;20349;-60
2021/07/22 11:00:41;0.00;0.00;0.62;0.00;0.00;0.62;5.87;5.37;;;28.50;34.40;;;;;;2260499;61;20616;-59
2021/07/22 11:03:57;0.00;0.00;0.62;0.00;0.00;0.62;6.93;6.23;;;28.50;34.40;;;;;;2261278;61;20581;-59
2021/07/22 11:07:03;0.00;0.00;0.62;0.00;0.00;0.62;6.20;5.70;;;28.60;34.50;;;;;;2260521;61;20362;-59